< < Back
Terminal Aerodrome Forecast


Current Version              Previous Versions:   1  2  3  4  5  6  7  8  9  

Terminal Aerodrome Forecast

717
FTUS42 KFFC 280201 AAA
TAFPDK
TAF AMD
KPDK 280201Z 2802/2824 35006KT P6SM FEW250
     FM280500 03005KT P6SM FEW120
     FM280800 06006KT P6SM SCT020 BKN110
     FM281100 07007KT P6SM BKN015 BKN100
     FM281500 08011G18KT P6SM BKN025 BKN090
     FM281700 08010G16KT P6SM SCT035 BKN080=

Latest METAR

670
SAUS70 KWBC 282100 RRE
MTRPDK
METAR KPDK 282053Z VRB04KT 10SM CLR 11/M03 A3048 RMK AO2 SLP331
T01111028 56025


USA.gov is the U.S. government's official web portal to all federal, state and local government web resources and services.